createdAt,value
2022-12-16T00:00:10.184Z,16.90
2022-12-16T00:02:37.998Z,15.53
2022-12-16T00:05:05.970Z,19.07
2022-12-16T00:07:33.572Z,15.27
2022-12-16T00:10:01.353Z,14.63
2022-12-16T00:12:29.075Z,14.47
2022-12-16T00:14:56.675Z,15.60
2022-12-16T00:17:24.260Z,17.27
2022-12-16T00:19:51.683Z,15.40
2022-12-16T00:22:19.709Z,14.53
2022-12-16T00:24:47.166Z,12.83
2022-12-16T00:27:14.631Z,13.43
2022-12-16T00:29:42.166Z,14.00
2022-12-16T00:32:09.808Z,15.07
2022-12-16T00:34:37.275Z,12.50
2022-12-16T00:37:04.761Z,13.57
2022-12-16T00:39:32.775Z,12.57
2022-12-16T00:42:00.239Z,12.30
2022-12-16T00:44:28.052Z,14.10
2022-12-16T00:46:55.558Z,10.87
2022-12-16T00:49:23.051Z,20.00
2022-12-16T00:51:50.547Z,16.57
2022-12-16T00:54:18.067Z,14.93
2022-12-16T00:56:46.689Z,12.63
2022-12-16T00:59:14.146Z,12.40
2022-12-16T01:01:41.841Z,14.07
2022-12-16T01:04:09.428Z,14.67
2022-12-16T01:06:36.906Z,11.83
2022-12-16T01:09:04.434Z,12.13
2022-12-16T01:11:31.935Z,11.87
2022-12-16T01:13:59.668Z,12.43
2022-12-16T01:16:27.239Z,11.50
2022-12-16T01:18:56.424Z,11.60
2022-12-16T01:21:23.927Z,10.27
2022-12-16T01:23:52.997Z,12.47
2022-12-16T01:26:23.715Z,12.97
2022-12-16T01:28:51.233Z,11.80
2022-12-16T01:31:21.241Z,11.33
2022-12-16T01:33:48.875Z,11.27
2022-12-16T01:36:16.974Z,11.73
2022-12-16T01:38:45.052Z,10.93
2022-12-16T01:41:14.264Z,9.20
2022-12-16T01:43:43.397Z,11.33
2022-12-16T01:46:13.691Z,10.40
2022-12-16T01:48:44.813Z,9.33
2022-12-16T01:51:18.455Z,10.50
2022-12-16T01:56:36.802Z,9.70
2022-12-16T01:59:05.443Z,12.83
2022-12-16T02:01:33.139Z,10.03
2022-12-16T02:04:03.786Z,11.83
2022-12-16T02:06:33.325Z,10.77
2022-12-16T02:09:06.340Z,10.73
2022-12-16T02:14:40.917Z,11.80
2022-12-16T02:17:39.004Z,9.60
2022-12-16T02:20:26.498Z,9.18
2022-12-16T02:23:30.183Z,9.53
2022-12-16T02:26:16.318Z,11.20
2022-12-16T02:29:06.869Z,8.73
2022-12-16T02:31:56.021Z,10.47
2022-12-16T02:34:42.151Z,11.20
2022-12-16T02:37:12.548Z,10.10
2022-12-16T02:39:50.743Z,9.80
2022-12-16T02:42:32.739Z,9.63
2022-12-16T02:48:03.680Z,9.50
2022-12-16T02:50:39.424Z,11.93
2022-12-16T02:53:09.398Z,10.23
2022-12-16T02:55:58.444Z,9.07
2022-12-16T02:58:37.739Z,12.17
2022-12-16T03:03:54.914Z,9.37
2022-12-16T03:06:25.325Z,10.10
2022-12-16T03:08:58.721Z,10.13
2022-12-16T03:11:29.614Z,7.93
2022-12-16T03:13:59.192Z,8.83
2022-12-16T03:16:31.903Z,9.90
2022-12-16T03:19:23.105Z,10.03
2022-12-16T03:21:50.686Z,10.03
2022-12-16T03:24:18.347Z,9.33
2022-12-16T03:26:55.556Z,10.53
2022-12-16T03:29:45.919Z,9.75
2022-12-16T03:32:57.883Z,9.27
2022-12-16T03:38:21.969Z,9.93
2022-12-16T03:40:51.463Z,8.83
2022-12-16T03:43:24.205Z,9.37
2022-12-16T03:45:55.236Z,10.37
2022-12-16T03:48:25.577Z,11.00
2022-12-16T03:53:38.206Z,11.50
2022-12-16T03:56:05.893Z,10.63
2022-12-16T03:58:35.432Z,8.87
2022-12-16T04:01:02.994Z,11.63
2022-12-16T04:03:30.867Z,14.17
2022-12-16T04:05:58.826Z,9.53
2022-12-16T04:11:30.040Z,10.70
2022-12-16T04:14:16.245Z,11.17
2022-12-16T04:17:20.030Z,9.50
2022-12-16T04:20:07.565Z,11.33
2022-12-16T04:28:20.599Z,9.63
2022-12-16T04:30:48.163Z,9.90
2022-12-16T04:33:35.205Z,7.90
2022-12-16T04:36:21.741Z,8.82
2022-12-16T04:39:08.129Z,10.57
2022-12-16T04:44:58.170Z,11.57
2022-12-16T04:47:46.180Z,7.53
2022-12-16T04:50:32.535Z,8.60
2022-12-16T04:53:18.852Z,12.00
2022-12-16T04:56:05.143Z,8.77
2022-12-16T05:01:55.472Z,8.23
2022-12-16T05:04:41.730Z,7.37
2022-12-16T05:07:30.006Z,9.73
2022-12-16T05:10:17.981Z,8.53
2022-12-16T05:13:04.146Z,8.17
2022-12-16T05:15:50.636Z,9.80
2022-12-16T05:18:36.704Z,7.50
2022-12-16T05:21:22.674Z,10.93
2022-12-16T05:24:08.635Z,8.83
2022-12-16T05:26:54.743Z,9.13
2022-12-16T05:29:43.402Z,8.27
2022-12-16T05:32:45.434Z,9.10
2022-12-16T05:35:31.647Z,8.77
2022-12-16T05:38:17.811Z,11.80
2022-12-16T05:41:03.774Z,6.93
2022-12-16T05:43:57.151Z,7.90
2022-12-16T05:46:43.757Z,10.37
2022-12-16T05:49:29.705Z,8.60
2022-12-16T05:52:15.769Z,8.70
2022-12-16T05:55:01.832Z,11.00
2022-12-16T05:57:49.806Z,7.97
2022-12-16T06:00:36.165Z,7.93
2022-12-16T06:03:22.631Z,7.53
2022-12-16T06:06:08.989Z,7.27
2022-12-16T06:08:55.231Z,9.73
2022-12-16T06:11:41.557Z,12.60
2022-12-16T06:14:27.881Z,6.37
2022-12-16T06:17:14.847Z,10.47
2022-12-16T06:20:01.031Z,6.93
2022-12-16T06:22:47.353Z,9.50
2022-12-16T06:25:33.526Z,7.03
2022-12-16T06:28:19.489Z,9.90
2022-12-16T06:31:05.558Z,7.73
2022-12-16T06:33:54.799Z,6.83
2022-12-16T06:36:41.423Z,6.37
2022-12-16T06:39:27.766Z,10.07
2022-12-16T06:42:18.537Z,8.27
2022-12-16T06:45:04.727Z,6.00
2022-12-16T06:47:55.302Z,9.00
2022-12-16T06:50:44.826Z,7.60
2022-12-16T06:53:32.005Z,6.80
2022-12-16T06:56:18.131Z,7.40
2022-12-16T06:59:04.350Z,11.03
2022-12-16T07:01:50.614Z,8.27
2022-12-16T07:04:37.011Z,6.50
2022-12-16T07:07:23.335Z,7.00
2022-12-16T07:10:09.368Z,7.97
2022-12-16T07:12:55.663Z,10.00
2022-12-16T07:15:41.905Z,9.57
2022-12-16T07:18:28.210Z,9.43
2022-12-16T07:21:14.265Z,9.77
2022-12-16T07:24:00.323Z,8.67
2022-12-16T07:26:46.431Z,8.70
2022-12-16T07:29:32.568Z,11.03
2022-12-16T07:32:19.006Z,8.07
2022-12-16T07:35:05.130Z,11.53
2022-12-16T07:37:51.482Z,7.03
2022-12-16T07:40:37.980Z,7.23
2022-12-16T07:43:24.063Z,8.60
2022-12-16T07:46:10.323Z,8.27
2022-12-16T07:48:56.434Z,7.30
2022-12-16T07:51:42.563Z,7.23
2022-12-16T07:54:28.946Z,5.70
2022-12-16T07:57:15.214Z,6.63
2022-12-16T08:00:01.334Z,6.93
2022-12-16T08:02:51.012Z,7.73
2022-12-16T08:05:37.355Z,6.93
2022-12-16T08:08:23.658Z,6.27
2022-12-16T08:11:09.858Z,7.57
2022-12-16T08:13:56.086Z,10.00
2022-12-16T08:16:42.358Z,7.53
2022-12-16T08:19:28.422Z,6.27
2022-12-16T08:22:14.693Z,7.87
2022-12-16T08:25:00.899Z,6.80
2022-12-16T08:27:47.356Z,10.33
2022-12-16T08:30:33.621Z,7.17
2022-12-16T08:33:20.034Z,8.10
2022-12-16T08:36:07.054Z,10.67
2022-12-16T08:38:53.143Z,7.17
2022-12-16T08:41:39.188Z,5.87
2022-12-16T08:44:25.654Z,6.00
2022-12-16T08:47:11.891Z,7.70
2022-12-16T08:50:01.523Z,9.17
2022-12-16T08:52:50.697Z,7.27
2022-12-16T08:55:37.071Z,9.57
2022-12-16T08:58:22.994Z,7.27
2022-12-16T09:01:09.293Z,6.73
2022-12-16T09:03:56.415Z,8.00
2022-12-16T09:06:42.679Z,8.60
2022-12-16T09:09:29.253Z,7.03
2022-12-16T09:12:15.516Z,6.77
2022-12-16T09:15:01.775Z,8.97
2022-12-16T09:17:49.926Z,7.67
2022-12-16T09:20:36.222Z,6.43
2022-12-16T09:23:23.399Z,7.53
2022-12-16T09:26:09.695Z,8.50
2022-12-16T09:28:55.985Z,8.33
2022-12-16T09:31:42.357Z,6.47
2022-12-16T09:34:28.888Z,8.10
2022-12-16T09:37:15.078Z,6.97
2022-12-16T09:40:01.254Z,7.63
2022-12-16T09:43:13.078Z,7.63
2022-12-16T09:46:13.101Z,5.80
2022-12-16T09:49:08.244Z,8.07
2022-12-16T09:51:56.081Z,7.60
2022-12-16T09:54:47.126Z,7.80
2022-12-16T09:57:34.912Z,7.37
2022-12-16T10:00:25.607Z,9.57
2022-12-16T10:03:11.917Z,10.87
2022-12-16T10:06:12.916Z,8.87
2022-12-16T10:09:09.360Z,12.90
2022-12-16T10:12:17.875Z,6.47
2022-12-16T10:15:16.366Z,7.40
2022-12-16T10:18:04.792Z,8.20
2022-12-16T10:21:07.792Z,8.27
2022-12-16T10:24:05.329Z,8.10
2022-12-16T10:27:11.843Z,8.37
2022-12-16T10:30:01.097Z,11.33
2022-12-16T10:32:53.747Z,9.43
2022-12-16T10:35:51.079Z,6.40
2022-12-16T10:39:05.753Z,7.97
2022-12-16T10:41:54.514Z,7.70
2022-12-16T10:44:48.339Z,6.67
2022-12-16T10:47:34.385Z,7.17
2022-12-16T10:50:20.632Z,6.87
2022-12-16T10:53:26.874Z,7.97
2022-12-16T10:56:27.956Z,6.33
2022-12-16T10:59:20.448Z,7.40
2022-12-16T11:02:22.625Z,9.60
2022-12-16T11:05:08.855Z,7.87
2022-12-16T11:08:03.804Z,9.27
2022-12-16T11:10:52.024Z,8.57
2022-12-16T11:13:46.446Z,9.53
2022-12-16T11:16:39.936Z,6.70
2022-12-16T11:19:41.009Z,8.23
2022-12-16T11:22:37.652Z,6.80
2022-12-16T11:25:43.821Z,7.63
2022-12-16T11:28:36.081Z,8.17
2022-12-16T11:31:32.053Z,8.37
2022-12-16T11:34:21.398Z,6.93
2022-12-16T11:37:11.057Z,6.57
2022-12-16T11:39:58.800Z,6.20
2022-12-16T11:42:47.973Z,8.70
2022-12-16T11:45:37.610Z,7.30
2022-12-16T11:48:39.376Z,6.63
2022-12-16T11:51:32.315Z,11.13
2022-12-16T11:54:26.279Z,6.43
2022-12-16T11:57:14.548Z,7.63
2022-12-16T12:00:19.231Z,7.53
2022-12-16T12:03:24.559Z,6.03
2022-12-16T12:06:30.083Z,6.73
2022-12-16T12:09:29.248Z,7.33
2022-12-16T12:12:27.475Z,6.57
2022-12-16T12:15:21.283Z,6.63
2022-12-16T12:18:29.060Z,9.60
2022-12-16T12:21:43.981Z,7.90
2022-12-16T12:24:49.026Z,7.83
2022-12-16T12:27:51.354Z,5.77
2022-12-16T12:30:39.827Z,5.40
2022-12-16T12:33:54.832Z,7.10
2022-12-16T12:37:05.516Z,5.73
2022-12-16T12:42:59.840Z,8.30
2022-12-16T12:45:57.080Z,6.00
2022-12-16T12:49:01.235Z,5.83
2022-12-16T12:52:23.597Z,7.37
2022-12-16T12:55:18.171Z,6.97
2022-12-16T12:58:07.517Z,6.27
2022-12-16T13:01:02.088Z,7.00
2022-12-16T13:04:15.119Z,6.10
2022-12-16T13:07:01.871Z,6.37
2022-12-16T13:09:49.723Z,6.87
2022-12-16T13:12:48.121Z,4.65
2022-12-16T13:15:53.870Z,8.77
2022-12-16T13:18:46.925Z,8.00
2022-12-16T13:21:54.606Z,6.27
2022-12-16T13:24:45.386Z,7.13
2022-12-16T13:27:34.003Z,5.93
2022-12-16T13:31:01.438Z,7.47
2022-12-16T13:33:49.664Z,5.93
2022-12-16T13:39:43.076Z,7.63
2022-12-16T13:42:50.859Z,8.10
2022-12-16T13:45:51.894Z,8.63
2022-12-16T13:48:48.397Z,8.47
2022-12-16T13:51:57.376Z,7.40
2022-12-16T13:54:51.544Z,6.72
2022-12-16T13:57:40.842Z,7.50
2022-12-16T14:00:39.295Z,12.23
2022-12-16T14:04:05.724Z,7.80
2022-12-16T14:07:03.028Z,8.50
2022-12-16T14:09:55.279Z,8.13
2022-12-16T14:13:06.675Z,10.30
2022-12-16T14:16:16.968Z,9.30
2022-12-16T14:19:18.020Z,9.27
2022-12-16T14:22:16.747Z,10.17
2022-12-16T14:27:53.153Z,9.13
2022-12-16T14:30:42.914Z,7.77
2022-12-16T14:33:36.757Z,8.37
2022-12-16T14:36:36.525Z,8.53
2022-12-16T14:39:22.920Z,7.97
2022-12-16T14:42:10.209Z,8.60
2022-12-16T14:44:56.349Z,10.32
2022-12-16T14:47:43.482Z,8.77
2022-12-16T14:50:46.014Z,8.40
2022-12-16T14:53:40.947Z,9.60
2022-12-16T14:56:36.818Z,9.93
2022-12-16T14:59:40.897Z,9.97
2022-12-16T15:02:44.609Z,10.17
2022-12-16T15:05:31.860Z,8.90
2022-12-16T15:08:18.714Z,11.13
2022-12-16T15:11:05.206Z,12.87
2022-12-16T15:13:54.961Z,10.23
2022-12-16T15:16:53.761Z,11.90
2022-12-16T15:19:42.589Z,10.50
2022-12-16T15:22:34.533Z,12.30
2022-12-16T15:25:20.808Z,9.50
2022-12-16T15:28:15.535Z,10.17
2022-12-16T15:31:04.567Z,11.10
2022-12-16T15:33:54.270Z,10.23
2022-12-16T15:36:47.344Z,11.73
2022-12-16T15:39:38.234Z,11.13
2022-12-16T15:42:36.149Z,13.90
2022-12-16T15:45:22.365Z,11.43
2022-12-16T15:48:09.504Z,12.20
2022-12-16T15:51:12.216Z,11.27
2022-12-16T15:53:58.195Z,11.90
2022-12-16T15:57:03.293Z,13.03
2022-12-16T15:59:52.157Z,11.67
2022-12-16T16:02:45.005Z,13.03
2022-12-16T16:05:39.003Z,13.60
2022-12-16T16:08:25.227Z,11.90
2022-12-16T16:11:11.346Z,12.63
2022-12-16T16:14:02.912Z,13.83
2022-12-16T16:16:52.492Z,15.37
2022-12-16T16:19:47.262Z,15.07
2022-12-16T16:22:35.742Z,13.47
2022-12-16T16:25:22.621Z,12.60
2022-12-16T16:28:08.754Z,13.93
2022-12-16T16:30:55.158Z,14.50
2022-12-16T16:33:41.186Z,15.97
2022-12-16T16:36:33.961Z,11.83
2022-12-16T16:39:20.263Z,12.97
2022-12-16T16:42:06.368Z,12.10
2022-12-16T16:44:52.714Z,14.13
2022-12-16T16:47:38.719Z,14.50
2022-12-16T16:50:25.409Z,13.77
2022-12-16T16:53:14.228Z,14.30
2022-12-16T16:56:00.162Z,11.90
2022-12-16T16:58:50.250Z,13.87
2022-12-16T17:01:37.466Z,13.50
2022-12-16T17:04:23.972Z,11.55
2022-12-16T17:07:12.123Z,12.43
2022-12-16T17:12:47.274Z,12.30
2022-12-16T17:15:42.627Z,13.40
2022-12-16T17:18:28.860Z,11.73
2022-12-16T17:21:14.830Z,13.07
2022-12-16T17:24:01.147Z,13.17
2022-12-16T17:26:55.092Z,14.67
2022-12-16T17:29:43.472Z,12.73
2022-12-16T17:32:29.836Z,13.83
2022-12-16T17:35:16.641Z,14.77
2022-12-16T17:38:02.997Z,14.00
2022-12-16T17:40:49.026Z,21.70
2022-12-16T17:43:36.297Z,14.13
2022-12-16T17:46:25.611Z,12.68
2022-12-16T17:49:16.989Z,21.57
2022-12-16T17:52:03.387Z,18.80
2022-12-16T17:54:49.743Z,17.63
2022-12-16T17:57:35.852Z,14.43
2022-12-16T18:00:22.947Z,13.83
2022-12-16T18:03:09.293Z,13.47
2022-12-16T18:05:55.814Z,17.47
2022-12-16T18:08:42.147Z,15.57
2022-12-16T18:11:28.309Z,14.87
2022-12-16T18:14:17.177Z,18.67
2022-12-16T18:17:03.378Z,13.77
2022-12-16T18:19:49.467Z,17.23
2022-12-16T18:22:35.339Z,13.90
2022-12-16T18:25:23.656Z,14.97
2022-12-16T18:28:09.866Z,15.20
2022-12-16T18:30:55.927Z,14.13
2022-12-16T18:33:41.922Z,12.87
2022-12-16T18:36:28.204Z,14.40
2022-12-16T18:39:14.639Z,16.67
2022-12-16T18:42:05.496Z,15.27
2022-12-16T18:44:57.528Z,14.23
2022-12-16T18:47:47.085Z,14.37
2022-12-16T18:50:37.825Z,15.43
2022-12-16T18:53:25.113Z,17.43
2022-12-16T18:56:22.155Z,16.57
2022-12-16T18:59:08.247Z,15.47
2022-12-16T19:01:54.702Z,16.93
2022-12-16T19:04:41.068Z,16.27
2022-12-16T19:07:29.841Z,15.27
2022-12-16T19:10:18.963Z,17.23
2022-12-16T19:13:05.186Z,13.17
2022-12-16T19:15:51.553Z,17.07
2022-12-16T19:18:37.773Z,15.33
2022-12-16T19:21:23.815Z,15.50
2022-12-16T19:24:10.127Z,14.60
2022-12-16T19:26:56.820Z,17.17
2022-12-16T19:29:43.731Z,15.27
2022-12-16T19:32:29.991Z,22.50
2022-12-16T19:35:16.032Z,17.43
2022-12-16T19:38:02.338Z,17.63
2022-12-16T19:40:48.471Z,19.07
2022-12-16T19:43:35.021Z,21.23
2022-12-16T19:46:21.016Z,23.03
2022-12-16T19:49:07.309Z,20.17
2022-12-16T19:51:53.626Z,23.63
2022-12-16T19:54:42.417Z,21.67
2022-12-16T19:57:31.032Z,24.13
2022-12-16T20:00:17.266Z,22.37
2022-12-16T20:03:03.681Z,25.10
2022-12-16T20:05:50.224Z,25.07
2022-12-16T20:08:36.544Z,23.47
2022-12-16T20:11:27.460Z,24.60
2022-12-16T20:14:14.422Z,32.43
2022-12-16T20:17:01.129Z,26.73
2022-12-16T20:19:47.480Z,33.47
2022-12-16T20:22:35.870Z,30.17
2022-12-16T20:25:21.839Z,34.23
2022-12-16T20:28:24.628Z,35.03
2022-12-16T20:31:11.057Z,31.40
2022-12-16T20:34:02.714Z,31.07
2022-12-16T20:36:49.401Z,32.07
2022-12-16T20:39:35.714Z,27.60
2022-12-16T20:42:21.932Z,26.07
2022-12-16T20:45:07.903Z,29.57
2022-12-16T20:47:54.220Z,31.77
2022-12-16T20:50:42.328Z,29.23
2022-12-16T20:53:28.594Z,27.00
2022-12-16T20:56:20.041Z,26.53
2022-12-16T20:59:07.719Z,24.93
2022-12-16T21:02:21.581Z,21.67
2022-12-16T21:05:00.429Z,17.27
2022-12-16T21:07:48.343Z,18.67
2022-12-16T21:10:34.731Z,18.20
2022-12-16T21:13:28.855Z,16.27
2022-12-16T21:16:21.099Z,13.77
2022-12-16T21:19:07.652Z,12.10
2022-12-16T21:21:53.810Z,11.03
2022-12-16T21:24:39.955Z,13.03
2022-12-16T21:27:26.333Z,12.93
2022-12-16T21:30:12.510Z,14.27
2022-12-16T21:32:58.685Z,11.53
2022-12-16T21:35:44.994Z,12.97
2022-12-16T21:38:31.798Z,14.00
2022-12-16T21:41:17.938Z,10.13
2022-12-16T21:44:04.322Z,11.80
2022-12-16T21:46:51.823Z,11.00
2022-12-16T21:49:38.132Z,10.02
2022-12-16T21:52:27.403Z,10.93
2022-12-16T21:55:13.560Z,12.77
2022-12-16T21:58:01.654Z,14.37
2022-12-16T22:03:33.465Z,14.40
2022-12-16T22:06:19.523Z,11.33
2022-12-16T22:09:05.792Z,12.20
2022-12-16T22:11:51.965Z,14.57
2022-12-16T22:14:38.244Z,13.30
2022-12-16T22:17:24.581Z,16.30
2022-12-16T22:20:10.694Z,15.97
2022-12-16T22:22:57.034Z,13.03
2022-12-16T22:25:43.080Z,14.07
2022-12-16T22:28:28.931Z,16.43
2022-12-16T22:31:16.329Z,16.50
2022-12-16T22:34:03.319Z,13.80
2022-12-16T22:36:49.372Z,12.30
2022-12-16T22:39:40.022Z,15.67
2022-12-16T22:42:29.363Z,15.40
2022-12-16T22:45:15.595Z,15.33
2022-12-16T22:48:01.764Z,14.80
2022-12-16T22:50:50.043Z,11.60
2022-12-16T22:53:36.056Z,13.10
2022-12-16T22:56:22.293Z,14.37
2022-12-16T22:59:08.766Z,12.50
2022-12-16T23:01:54.902Z,14.90
2022-12-16T23:04:42.974Z,14.83
2022-12-16T23:07:29.190Z,13.60
2022-12-16T23:10:15.194Z,14.10
2022-12-16T23:13:01.670Z,14.97
2022-12-16T23:15:47.895Z,13.27
2022-12-16T23:18:34.114Z,12.90
2022-12-16T23:21:20.317Z,13.73
2022-12-16T23:24:11.001Z,14.87
2022-12-16T23:26:57.350Z,17.03
2022-12-16T23:29:43.286Z,16.10
2022-12-16T23:32:29.996Z,15.97
2022-12-16T23:35:17.435Z,16.00
2022-12-16T23:38:03.631Z,19.03
2022-12-16T23:40:49.965Z,16.60
2022-12-16T23:43:36.197Z,17.73
2022-12-16T23:46:22.364Z,18.20
2022-12-16T23:49:08.499Z,20.90
2022-12-16T23:51:55.808Z,15.70
2022-12-16T23:54:42.458Z,19.00
2022-12-16T23:57:28.537Z,17.83
